Aérodrome :
LOGIN :

S'inscrire | Disclaimer

   EN    FR    IT 

 










Légende :    VFR   VFR Marginal   IFR   IFR Intensif   IFR Très Intensif
Visi : 
Plafond : 
>= 8 km
>= 3000ft
5 à 8 km
1000 à 3000 ft
1500m à 5 km
500 à 1000 ft
800 à 1500m
200 à 500 ft
< 800m
< 200 ft
Symboles :   Orages  Brouillard  Fortes neiges  Fortes précipitations  Vent > 20 kt
SIGMETs :   Divers  Orages  Givrage  Turbulence  Onde Orograph.  Cendres Volcan.







- Altitude de l'aérodrome : 63 ft
- Code IATA : BZM


EHWO - Woensdrecht Airbase

DERNIER METAR :
  • 151155Z AUTO 09006KT 080V140 9999 NCD 12/08 Q1023 BLU 10003KT CAVOK

METARs EXPIRÉS :
  • 151125Z AUTO 10004KT 070V130 9999 NCD 12/08 Q1023 BLU 10003KT CAVOK
  • 151055Z AUTO 10003KT 070V140 9999 NCD 12/07 Q1024 BLU 10003KT CAVOK
  • 151030Z AUTO 08003KT 060V130 9999 NCD 11/07 Q1024 BLU 10003KT CAVOK
  • 151025Z AUTO VRB02KT 9999 NCD 11/07 Q1024 BLU 12003KT CAVOK
  • 150955Z AUTO 10004KT 070V130 9999 NCD 10/06 Q1024 BLU 12003KT CAVOK
  • 150925Z AUTO 12003KT 050V140 9999 NCD 09/06 Q1024 BLU 12003KT CAVOK

TAF TAF EHWO
Valide du 15 à 10h jusqu'au 15 à 22h UTC


150933Z 1510/1522 12003KT CAVOK
BECMG 1520/1522 4500 BR
Pas de NOTAMs connus pour ce terrain.



MET'MAP, la Météo Aéronautique d'un coup d'oeil ! - Copyright ORBIFLY Décembre 2007 - Disclaimer

ORBIFLY MET'MAP TEAM :

Programmation & Développement : Alexandra Zaïnal
Conception & Développement : Baudouin d'Aumeries
Co-Programmation & Développement : Marc-Olivier Méhu
Soutien technique & logistique : Manuel Goepfert

Contact : metmap@orbifly.com




SOURCES & CREDITS :

   NOAA